Time;durP1;ratioP1;P1;durP2;ratioP2;P2;SDS_P1;SDS_P2;PMS_P1;PMS_P2;Temp;Humidity;BMP_temperature;BMP_pressure;BME280_temperature;BME280_humidity;BME280_pressure;Samples;Min_cycle;Max_cycle;Signal;HPM_P1;HPM_P2
2023/04/26 00:00:18;;;;;;;6.32;1.70;;;4.60;99.90;;;;;;5145441;27;20046;-56
2023/04/26 00:02:44;;;;;;;8.10;2.17;;;4.50;99.90;;;;;;5160564;27;20038;-58
2023/04/26 00:05:10;;;;;;;7.32;1.80;;;4.60;99.90;;;;;;5130807;27;20043;-53
2023/04/26 00:07:36;;;;;;;7.82;1.80;;;4.50;99.90;;;;;;5158711;27;20377;-56
2023/04/26 00:10:04;;;;;;;7.03;2.03;;;4.50;99.90;;;;;;5146797;27;20481;-56
2023/04/26 00:12:29;;;;;;;8.32;1.92;;;4.50;99.90;;;;;;5172743;27;20465;-57
2023/04/26 00:14:55;;;;;;;5.20;1.50;;;4.50;99.90;;;;;;5172606;27;20030;-59
2023/04/26 00:17:22;;;;;;;8.77;1.80;;;4.50;99.90;;;;;;5173571;27;20491;-56
2023/04/26 00:19:48;;;;;;;9.25;1.70;;;4.40;99.90;;;;;;5172195;27;20034;-56
2023/04/26 00:22:14;;;;;;;9.52;1.80;;;4.40;99.90;;;;;;5172899;27;20199;-59
2023/04/26 00:24:40;;;;;;;6.38;1.67;;;4.40;99.90;;;;;;5172214;27;20063;-58
2023/04/26 00:27:09;;;;;;;6.93;1.30;;;4.40;99.90;;;;;;5172131;27;20481;-54
2023/04/26 00:29:38;;;;;;;6.65;1.85;;;4.40;99.90;;;;;;5170060;27;20170;-54
2023/04/26 00:32:04;;;;;;;8.57;1.80;;;4.40;99.90;;;;;;5171548;27;20034;-54
2023/04/26 00:34:33;;;;;;;8.77;2.35;;;4.40;99.90;;;;;;5169244;27;20492;-59
2023/04/26 00:36:59;;;;;;;10.57;2.10;;;4.40;99.90;;;;;;5171834;27;20383;-53
2023/04/26 00:39:25;;;;;;;8.10;1.52;;;4.50;99.90;;;;;;5172591;27;20040;-52
2023/04/26 00:41:51;;;;;;;8.65;2.50;;;4.50;99.90;;;;;;5171779;27;20046;-56
2023/04/26 00:44:17;;;;;;;9.27;1.60;;;4.50;99.90;;;;;;5143783;27;20072;-55
2023/04/26 00:46:43;;;;;;;7.30;1.58;;;4.60;99.90;;;;;;5160596;27;20050;-57
2023/04/26 00:49:16;;;;;;;6.63;1.92;;;4.60;99.90;;;;;;5172008;27;20095;-58
2023/04/26 00:51:43;;;;;;;7.70;1.50;;;4.60;99.90;;;;;;5170762;27;20117;-58
2023/04/26 00:54:09;;;;;;;7.40;2.00;;;4.60;99.90;;;;;;5172908;27;20457;-53
2023/04/26 00:56:37;;;;;;;8.75;1.63;;;4.50;99.90;;;;;;5171887;27;20114;-56
2023/04/26 00:59:03;;;;;;;6.47;1.60;;;4.50;99.90;;;;;;5171753;27;20045;-57
2023/04/26 01:01:29;;;;;;;7.47;1.85;;;4.50;99.90;;;;;;5134673;27;20082;-56
2023/04/26 01:03:55;;;;;;;3.70;1.67;;;4.50;99.90;;;;;;5172908;27;20068;-54
2023/04/26 01:06:21;;;;;;;5.93;1.77;;;4.50;99.90;;;;;;5171672;27;20118;-56
2023/04/26 01:08:50;;;;;;;12.68;1.83;;;4.40;99.90;;;;;;5171792;27;20038;-56
2023/04/26 01:11:18;;;;;;;5.97;1.60;;;4.40;99.90;;;;;;5169263;27;20073;-54
2023/04/26 01:13:45;;;;;;;5.75;1.52;;;4.40;99.90;;;;;;5170303;27;20026;-58
2023/04/26 01:16:12;;;;;;;5.05;1.65;;;4.40;99.90;;;;;;5165477;27;20038;-56
2023/04/26 01:18:38;;;;;;;7.57;1.60;;;4.30;99.90;;;;;;5172399;27;20469;-60
2023/04/26 01:21:04;;;;;;;8.15;2.10;;;4.30;99.90;;;;;;5156085;27;20046;-55
2023/04/26 01:23:30;;;;;;;9.13;1.70;;;4.30;99.90;;;;;;5171800;27;20540;-58
2023/04/26 01:25:56;;;;;;;4.70;1.40;;;4.30;99.90;;;;;;5171111;27;20041;-56
2023/04/26 01:28:22;;;;;;;6.90;1.52;;;4.20;99.90;;;;;;5172010;27;20034;-58
2023/04/26 01:30:47;;;;;;;7.40;1.48;;;4.20;99.90;;;;;;5170567;27;20042;-53
2023/04/26 01:33:14;;;;;;;6.88;1.40;;;4.20;99.90;;;;;;5141285;27;20462;-54
2023/04/26 01:35:41;;;;;;;6.15;1.83;;;4.20;99.90;;;;;;5164979;27;20042;-56
2023/04/26 01:38:07;;;;;;;7.65;1.73;;;4.20;99.90;;;;;;5164092;27;20492;-55
2023/04/26 01:40:33;;;;;;;5.03;1.42;;;4.20;99.90;;;;;;5167644;27;20129;-56
2023/04/26 01:42:59;;;;;;;5.28;1.55;;;4.20;99.90;;;;;;5171523;27;20042;-54
2023/04/26 01:45:25;;;;;;;7.55;1.75;;;4.20;99.90;;;;;;5133675;27;20039;-59
2023/04/26 01:47:50;;;;;;;7.40;1.85;;;4.10;99.90;;;;;;5141970;27;20386;-59
2023/04/26 01:50:16;;;;;;;6.50;2.03;;;4.00;99.90;;;;;;5171307;27;20559;-54
2023/04/26 01:52:42;;;;;;;8.10;2.10;;;3.90;99.90;;;;;;5140342;27;20055;-58
2023/04/26 01:55:08;;;;;;;4.80;1.70;;;3.80;99.90;;;;;;5164918;27;20098;-58
2023/04/26 01:57:33;;;;;;;7.05;1.90;;;3.70;99.90;;;;;;5172183;27;20392;-58
2023/04/26 02:00:01;;;;;;;4.82;1.63;;;3.70;99.90;;;;;;5170552;27;20113;-56
2023/04/26 02:02:27;;;;;;;4.63;1.85;;;3.70;99.90;;;;;;5170296;27;20846;-56
2023/04/26 02:04:52;;;;;;;7.00;1.92;;;3.60;99.90;;;;;;5175013;27;20037;-58
2023/04/26 02:07:18;;;;;;;5.35;1.80;;;3.60;99.90;;;;;;5176491;27;20050;-58
2023/04/26 02:09:45;;;;;;;7.00;1.65;;;3.60;99.90;;;;;;5118609;27;20042;-59
2023/04/26 02:12:11;;;;;;;7.35;2.28;;;3.60;99.90;;;;;;5157069;27;20113;-59
2023/04/26 02:14:37;;;;;;;7.05;2.15;;;3.50;99.90;;;;;;5174237;27;20505;-57
2023/04/26 02:17:03;;;;;;;8.15;1.75;;;3.50;99.90;;;;;;5143202;27;20035;-56
2023/04/26 02:19:29;;;;;;;4.97;1.80;;;3.60;99.90;;;;;;5170593;27;20388;-57
2023/04/26 02:21:57;;;;;;;5.88;2.00;;;3.50;99.90;;;;;;5175536;27;20074;-56
2023/04/26 02:24:23;;;;;;;3.90;1.80;;;3.40;99.90;;;;;;5174885;27;20384;-56
2023/04/26 02:26:49;;;;;;;6.07;2.00;;;3.40;99.90;;;;;;5175511;27;20034;-53
2023/04/26 02:29:15;;;;;;;6.43;1.88;;;3.40;99.90;;;;;;5170959;27;20091;-53
2023/04/26 02:31:41;;;;;;;4.88;1.77;;;3.30;99.90;;;;;;5137158;27;20050;-56
2023/04/26 02:34:07;;;;;;;5.38;2.00;;;3.20;99.90;;;;;;5170561;27;20030;-58
2023/04/26 02:36:33;;;;;;;4.03;1.92;;;3.20;99.90;;;;;;5142520;27;20137;-52
2023/04/26 02:38:59;;;;;;;5.22;1.70;;;3.20;99.90;;;;;;5134820;27;20134;-55
2023/04/26 02:41:25;;;;;;;5.97;1.95;;;3.10;99.90;;;;;;5134845;27;20047;-54
2023/04/26 02:43:51;;;;;;;4.53;1.50;;;3.10;99.90;;;;;;5168637;27;20032;-56
2023/04/26 02:46:17;;;;;;;6.45;2.35;;;3.00;99.90;;;;;;5174989;27;20469;-54
2023/04/26 02:48:42;;;;;;;7.10;2.13;;;3.10;99.90;;;;;;5136175;27;20393;-55
2023/04/26 02:51:08;;;;;;;8.25;2.22;;;3.00;99.90;;;;;;5156113;27;20042;-55
2023/04/26 02:53:34;;;;;;;6.47;2.63;;;3.00;99.90;;;;;;5173666;27;20038;-52
2023/04/26 02:56:00;;;;;;;6.15;2.03;;;3.10;99.90;;;;;;5175182;27;20069;-55
2023/04/26 02:58:26;;;;;;;6.07;2.05;;;3.10;99.90;;;;;;5174064;27;20105;-56
2023/04/26 03:00:53;;;;;;;5.97;2.15;;;3.10;99.90;;;;;;5174654;27;20042;-55
2023/04/26 03:03:19;;;;;;;11.55;2.58;;;3.10;99.90;;;;;;5157775;27;20125;-53
2023/04/26 03:05:45;;;;;;;11.90;2.20;;;3.20;99.90;;;;;;5157521;27;20098;-58
2023/04/26 03:08:11;;;;;;;8.27;2.05;;;3.20;99.90;;;;;;5173082;27;20030;-55
2023/04/26 03:10:37;;;;;;;7.10;2.10;;;4.70;99.90;;;;;;5174482;27;20496;-55
2023/04/26 03:13:06;;;;;;;9.80;2.20;;;3.30;99.90;;;;;;5173309;27;20098;-55
2023/04/26 03:15:31;;;;;;;4.35;2.00;;;3.40;99.90;;;;;;5142380;27;20046;-53
2023/04/26 03:17:57;;;;;;;8.43;2.55;;;3.50;99.90;;;;;;5134252;27;20043;-54
2023/04/26 03:20:26;;;;;;;6.95;1.80;;;3.60;99.90;;;;;;5147405;27;20037;-54
2023/04/26 03:22:52;;;;;;;6.70;1.90;;;3.90;99.90;;;;;;5159358;27;20117;-54
2023/04/26 03:25:18;;;;;;;6.97;2.35;;;3.80;99.90;;;;;;5173657;27;20113;-52
2023/04/26 03:27:44;;;;;;;6.63;1.98;;;3.80;99.90;;;;;;5174546;27;20370;-58
2023/04/26 03:30:10;;;;;;;7.20;2.08;;;3.80;99.90;;;;;;5172083;27;20114;-57
2023/04/26 03:32:36;;;;;;;7.82;2.28;;;3.80;99.90;;;;;;5173977;27;20041;-54
2023/04/26 03:35:01;;;;;;;7.63;2.25;;;3.90;99.90;;;;;;5173127;27;20031;-56
2023/04/26 03:37:27;;;;;;;9.25;2.40;;;3.80;99.90;;;;;;5173714;27;20044;-58
2023/04/26 03:39:53;;;;;;;8.90;1.98;;;3.90;99.90;;;;;;5172359;27;20026;-54
2023/04/26 03:42:19;;;;;;;8.45;2.65;;;3.80;99.90;;;;;;5173924;27;20038;-58
2023/04/26 03:44:45;;;;;;;7.15;1.80;;;3.90;99.90;;;;;;5172984;27;20085;-55
2023/04/26 03:47:11;;;;;;;8.75;1.90;;;4.00;99.90;;;;;;5173453;27;20046;-57
2023/04/26 03:49:37;;;;;;;8.55;1.83;;;3.90;99.90;;;;;;5173384;27;20046;-58
2023/04/26 03:52:03;;;;;;;4.50;1.70;;;4.00;99.90;;;;;;5173131;27;20041;-58
2023/04/26 03:54:28;;;;;;;8.68;2.38;;;4.10;99.90;;;;;;5172518;27;20477;-55
2023/04/26 03:56:54;;;;;;;8.95;2.08;;;4.10;99.90;;;;;;5173889;27;20106;-55
2023/04/26 03:59:20;;;;;;;6.07;2.15;;;4.10;99.90;;;;;;5172949;27;20034;-54
2023/04/26 04:01:45;;;;;;;7.03;1.50;;;4.10;99.90;;;;;;5172704;27;20042;-57
2023/04/26 04:04:11;;;;;;;6.45;1.98;;;4.20;99.90;;;;;;5172942;27;20066;-57
2023/04/26 04:06:37;;;;;;;5.97;2.40;;;4.20;99.90;;;;;;5172785;27;20102;-56
2023/04/26 04:09:04;;;;;;;7.25;2.45;;;4.10;99.90;;;;;;5160330;27;20045;-54
2023/04/26 04:11:30;;;;;;;6.07;1.85;;;4.20;99.90;;;;;;5174266;27;20042;-53
2023/04/26 04:13:56;;;;;;;7.55;2.17;;;4.10;99.90;;;;;;5174737;27;20035;-56
2023/04/26 04:16:21;;;;;;;5.50;2.00;;;4.10;99.90;;;;;;5173022;27;20472;-53
2023/04/26 04:18:47;;;;;;;7.57;2.10;;;4.00;99.90;;;;;;5173004;27;20030;-53
2023/04/26 04:21:13;;;;;;;7.60;1.98;;;3.80;99.90;;;;;;5171781;27;20095;-52
2023/04/26 04:23:38;;;;;;;5.72;2.08;;;3.80;99.90;;;;;;5172177;27;20046;-55
2023/04/26 04:26:04;;;;;;;6.03;2.13;;;3.80;99.90;;;;;;5171105;27;20087;-56
2023/04/26 04:28:33;;;;;;;5.10;1.90;;;3.80;99.90;;;;;;5171807;27;20031;-56
2023/04/26 04:30:59;;;;;;;9.32;2.78;;;3.60;99.90;;;;;;5172158;27;20502;-57
2023/04/26 04:33:27;;;;;;;8.52;2.40;;;3.50;99.90;;;;;;5173371;27;20038;-57
2023/04/26 04:35:53;;;;;;;7.05;2.35;;;3.40;99.90;;;;;;5173301;27;20073;-53
2023/04/26 04:38:19;;;;;;;10.48;2.78;;;3.40;99.90;;;;;;5171469;27;20030;-56
2023/04/26 04:40:48;;;;;;;6.97;2.40;;;3.30;99.90;;;;;;5131128;27;20042;-56
2023/04/26 04:43:15;;;;;;;5.68;2.33;;;3.30;99.90;;;;;;5160596;27;20468;-55
2023/04/26 04:45:41;;;;;;;5.72;2.25;;;3.10;99.90;;;;;;5172423;27;20040;-52
2023/04/26 04:48:08;;;;;;;8.00;2.58;;;3.10;99.90;;;;;;5136952;27;20130;-56
2023/04/26 04:50:34;;;;;;;6.05;2.28;;;3.00;99.90;;;;;;5172142;27;20046;-57
2023/04/26 04:53:00;;;;;;;7.40;2.70;;;3.10;99.90;;;;;;5171765;27;20034;-58
2023/04/26 04:55:26;;;;;;;8.07;2.60;;;3.00;99.90;;;;;;5148958;27;20037;-55
2023/04/26 04:57:52;;;;;;;7.80;2.30;;;3.10;99.90;;;;;;5173677;27;20500;-58
2023/04/26 05:00:18;;;;;;;6.18;2.55;;;3.10;99.90;;;;;;5173718;27;20034;-55
2023/04/26 05:02:44;;;;;;;6.93;2.20;;;3.10;99.90;;;;;;5172495;27;20113;-52
2023/04/26 05:05:10;;;;;;;11.02;2.45;;;3.10;99.90;;;;;;5113789;27;20114;-55
2023/04/26 05:07:36;;;;;;;10.93;3.10;;;3.10;99.90;;;;;;5156918;27;20421;-56
2023/04/26 05:10:02;;;;;;;16.42;5.13;;;3.10;99.90;;;;;;5171900;27;20530;-57
2023/04/26 05:12:28;;;;;;;17.98;5.88;;;3.20;99.90;;;;;;5171423;27;20034;-57
2023/04/26 05:14:54;;;;;;;17.98;6.00;;;3.30;99.90;;;;;;5171503;27;20373;-56
2023/04/26 05:17:19;;;;;;;22.92;7.28;;;3.40;99.90;;;;;;5171773;27;20030;-59
2023/04/26 05:19:46;;;;;;;22.00;7.05;;;3.50;99.90;;;;;;5171601;27;20030;-58
2023/04/26 05:22:19;;;;;;;23.85;6.90;;;3.60;99.90;;;;;;5170846;27;20034;-58
2023/04/26 05:24:46;;;;;;;15.82;4.68;;;3.70;99.90;;;;;;5171543;27;20038;-58
2023/04/26 05:27:12;;;;;;;14.73;4.13;;;3.80;99.90;;;;;;5138665;27;20035;-57
2023/04/26 05:29:38;;;;;;;8.80;2.60;;;3.90;99.90;;;;;;5142323;27;20039;-59
2023/04/26 05:32:04;;;;;;;6.93;2.65;;;4.00;99.90;;;;;;5167466;27;20561;-56
2023/04/26 05:34:29;;;;;;;5.90;2.50;;;4.10;99.90;;;;;;5172327;27;20451;-57
2023/04/26 05:36:55;;;;;;;9.90;2.22;;;4.10;99.90;;;;;;5170026;27;20046;-53
2023/04/26 05:39:21;;;;;;;10.02;2.50;;;4.30;99.90;;;;;;5146452;27;20487;-52
2023/04/26 05:41:46;;;;;;;6.40;2.08;;;4.40;99.90;;;;;;5170507;27;20150;-55
2023/04/26 05:44:15;;;;;;;10.05;2.15;;;4.50;99.90;;;;;;5142678;27;20042;-57
2023/04/26 05:46:41;;;;;;;14.15;2.65;;;4.60;99.90;;;;;;5160450;27;20485;-56
2023/04/26 05:49:06;;;;;;;7.72;2.30;;;4.60;99.90;;;;;;5172269;27;20046;-55
2023/04/26 05:51:32;;;;;;;9.05;2.47;;;4.70;99.90;;;;;;5171026;27;20061;-55
2023/04/26 05:53:58;;;;;;;6.78;2.25;;;4.70;99.90;;;;;;5143136;27;20065;-55
2023/04/26 05:56:24;;;;;;;8.13;2.40;;;4.70;99.90;;;;;;5137425;27;20545;-56
2023/04/26 05:58:51;;;;;;;5.03;2.10;;;4.80;99.90;;;;;;5170799;27;20045;-56
2023/04/26 06:01:17;;;;;;;9.30;2.38;;;4.80;99.90;;;;;;5170388;27;20153;-57
2023/04/26 06:03:44;;;;;;;6.65;1.90;;;4.80;99.90;;;;;;5171942;27;20110;-57
2023/04/26 06:06:10;;;;;;;5.95;2.17;;;5.10;99.90;;;;;;5168008;27;20495;-57
2023/04/26 06:08:36;;;;;;;4.45;1.58;;;5.00;99.90;;;;;;5163833;27;20042;-54
2023/04/26 06:11:01;;;;;;;6.80;1.75;;;5.10;99.90;;;;;;5170657;27;20038;-57
2023/04/26 06:13:27;;;;;;;5.65;1.77;;;5.10;99.90;;;;;;5170628;27;20370;-58
2023/04/26 06:15:53;;;;;;;5.40;1.92;;;5.20;99.90;;;;;;5170649;27;20403;-54
2023/04/26 06:18:19;;;;;;;5.68;1.70;;;5.20;99.90;;;;;;5170657;27;20121;-51
2023/04/26 06:20:48;;;;;;;5.35;1.83;;;5.30;99.90;;;;;;5170939;27;20114;-55
2023/04/26 06:23:13;;;;;;;8.27;2.10;;;5.40;99.90;;;;;;5170364;27;20117;-56
2023/04/26 06:25:43;;;;;;;5.28;1.95;;;5.40;99.90;;;;;;5170240;27;20026;-57
2023/04/26 06:28:09;;;;;;;13.38;2.40;;;5.40;99.90;;;;;;5171988;27;20034;-55
2023/04/26 06:30:35;;;;;;;7.25;1.92;;;5.40;99.90;;;;;;5169609;27;20038;-58
2023/04/26 06:33:01;;;;;;;7.40;2.15;;;5.40;99.90;;;;;;5171581;27;20049;-56
2023/04/26 06:35:27;;;;;;;24.38;9.32;;;5.60;99.90;;;;;;5164137;27;20080;-54
2023/04/26 06:37:52;;;;;;;41.90;17.58;;;5.50;99.90;;;;;;5169691;27;20050;-55
2023/04/26 06:40:18;;;;;;;36.38;16.50;;;5.50;99.90;;;;;;5166425;27;20034;-56
2023/04/26 06:42:44;;;;;;;46.88;20.00;;;5.50;99.90;;;;;;5167405;27;20066;-58
2023/04/26 06:45:10;;;;;;;34.83;13.70;;;5.40;99.90;;;;;;5157909;27;20046;-57
2023/04/26 06:47:36;;;;;;;29.45;11.38;;;5.40;99.90;;;;;;5142926;27;20564;-52
2023/04/26 06:50:03;;;;;;;20.80;8.13;;;5.50;99.90;;;;;;5120126;27;20122;-54
2023/04/26 06:52:30;;;;;;;16.08;6.07;;;5.60;99.90;;;;;;5146800;27;20041;-54
2023/04/26 06:54:55;;;;;;;10.98;4.10;;;5.60;99.90;;;;;;5147472;27;20389;-57
2023/04/26 06:57:21;;;;;;;15.68;6.20;;;5.70;99.90;;;;;;5148767;27;20031;-55
2023/04/26 06:59:47;;;;;;;15.32;6.68;;;5.80;99.90;;;;;;5145305;27;20043;-56
2023/04/26 07:02:12;;;;;;;19.23;8.23;;;5.90;99.90;;;;;;5127538;27;20039;-59
2023/04/26 07:04:38;;;;;;;12.10;3.30;;;5.90;99.90;;;;;;5144770;27;20053;-56
2023/04/26 07:07:04;;;;;;;10.77;3.63;;;6.00;99.90;;;;;;5149605;27;20314;-55
2023/04/26 07:09:30;;;;;;;11.93;4.00;;;6.10;99.90;;;;;;5146549;27;20031;-55
2023/04/26 07:11:56;;;;;;;10.63;5.00;;;6.20;99.90;;;;;;5147259;27;20045;-57
2023/04/26 07:14:22;;;;;;;17.23;6.13;;;6.20;99.90;;;;;;5123056;27;20035;-59
2023/04/26 07:16:48;;;;;;;19.75;6.63;;;6.20;99.90;;;;;;5154949;27;20038;-54
2023/04/26 07:19:13;;;;;;;24.45;9.30;;;6.30;99.90;;;;;;5151397;27;20039;-54
2023/04/26 07:21:39;;;;;;;20.38;7.72;;;6.50;99.90;;;;;;5154189;27;20230;-56
2023/04/26 07:24:05;;;;;;;13.95;5.00;;;6.50;99.90;;;;;;5151101;27;20634;-56
2023/04/26 07:26:31;;;;;;;17.73;7.30;;;6.70;99.90;;;;;;5158332;27;20109;-58
2023/04/26 07:28:58;;;;;;;11.20;3.97;;;6.80;99.90;;;;;;5157375;27;20550;-56
2023/04/26 07:31:24;;;;;;;6.25;2.10;;;6.80;99.90;;;;;;5158996;27;20073;-55
2023/04/26 07:33:50;;;;;;;7.35;1.60;;;6.80;99.90;;;;;;5151573;27;20059;-57
2023/04/26 07:36:15;;;;;;;7.47;1.90;;;6.80;99.90;;;;;;5148202;27;20035;-56
2023/04/26 07:38:41;;;;;;;6.70;1.77;;;6.70;99.90;;;;;;5157484;27;20030;-56
2023/04/26 07:41:07;;;;;;;6.32;1.42;;;6.60;99.90;;;;;;5156232;27;20112;-53
2023/04/26 07:43:32;;;;;;;3.92;1.70;;;6.70;99.90;;;;;;5130517;27;20336;-59
2023/04/26 07:45:59;;;;;;;6.03;1.52;;;6.70;99.90;;;;;;5157106;27;20400;-56
2023/04/26 07:48:25;;;;;;;8.65;1.77;;;6.70;99.90;;;;;;5129789;27;20082;-59
2023/04/26 07:50:51;;;;;;;5.60;1.60;;;6.80;99.90;;;;;;5155358;27;20077;-56
2023/04/26 07:53:17;;;;;;;6.90;1.70;;;6.80;99.90;;;;;;5155519;27;20038;-56
2023/04/26 07:55:42;;;;;;;7.68;1.63;;;6.90;99.90;;;;;;5156903;27;20125;-56
2023/04/26 07:58:11;;;;;;;5.03;1.60;;;7.00;99.90;;;;;;5157883;27;20042;-56
2023/04/26 08:00:37;;;;;;;5.68;1.60;;;7.10;99.90;;;;;;5154978;27;20038;-56
2023/04/26 08:03:04;;;;;;;5.95;1.45;;;7.10;99.90;;;;;;5147592;27;20077;-56
2023/04/26 08:05:29;;;;;;;6.88;1.42;;;7.20;99.90;;;;;;5140576;27;20200;-57
2023/04/26 08:07:55;;;;;;;6.35;1.48;;;7.30;99.90;;;;;;5145645;27;20027;-57
2023/04/26 08:10:21;;;;;;;6.05;1.70;;;7.40;99.90;;;;;;5124268;27;20026;-58
2023/04/26 08:12:46;;;;;;;5.68;1.45;;;7.40;99.90;;;;;;5148136;27;20037;-59
2023/04/26 08:15:12;;;;;;;9.27;1.60;;;7.50;99.90;;;;;;5121870;27;20406;-58
2023/04/26 08:17:38;;;;;;;2.78;1.23;;;7.50;99.90;;;;;;5143099;27;20118;-55
2023/04/26 08:20:04;;;;;;;8.73;1.58;;;7.50;99.90;;;;;;5120638;27;20027;-55
2023/04/26 08:22:30;;;;;;;6.80;1.50;;;7.50;99.90;;;;;;5148067;27;20136;-56
2023/04/26 08:24:56;;;;;;;7.20;1.63;;;7.60;99.90;;;;;;5145843;27;20124;-57
2023/04/26 08:27:22;;;;;;;6.28;1.55;;;7.60;99.90;;;;;;5143760;27;20113;-56
2023/04/26 08:29:47;;;;;;;4.68;1.23;;;7.70;99.90;;;;;;5146587;27;20070;-59
2023/04/26 08:32:13;;;;;;;7.00;1.50;;;7.80;99.90;;;;;;5148541;27;20107;-58
2023/04/26 08:34:39;;;;;;;6.63;1.50;;;7.90;99.90;;;;;;5148318;27;20046;-56
2023/04/26 08:37:09;;;;;;;5.95;1.40;;;7.90;99.90;;;;;;5148337;27;20042;-57
2023/04/26 08:39:34;;;;;;;5.50;1.50;;;8.00;99.90;;;;;;5147545;27;20461;-57
2023/04/26 08:42:27;;;;;;;6.50;1.90;;;8.10;99.90;;;;;;5150399;27;20030;-56
2023/04/26 08:44:53;;;;;;;9.60;1.95;;;8.10;99.90;;;;;;5149622;27;20071;-57
2023/04/26 08:47:30;;;;;;;9.57;1.88;;;8.20;99.90;;;;;;5151748;27;20057;-56
2023/04/26 08:50:02;;;;;;;8.13;1.83;;;8.30;99.90;;;;;;5157294;27;20564;-57
2023/04/26 08:52:29;;;;;;;9.05;1.98;;;8.30;99.90;;;;;;5162140;27;20067;-55
2023/04/26 08:54:59;;;;;;;4.85;1.50;;;8.30;99.90;;;;;;5165106;27;20436;-56
2023/04/26 08:57:26;;;;;;;5.65;1.73;;;8.30;99.90;;;;;;5170326;27;20030;-57
2023/04/26 08:59:52;;;;;;;4.72;1.60;;;8.30;99.90;;;;;;5169040;27;20109;-54
2023/04/26 09:02:22;;;;;;;7.25;1.83;;;8.30;99.90;;;;;;5129796;27;20500;-55
2023/04/26 09:04:49;;;;;;;8.50;1.90;;;8.40;99.90;;;;;;5156694;27;20073;-55
2023/04/26 09:07:31;;;;;;;7.30;2.20;;;8.40;99.90;;;;;;5170591;27;20034;-58
2023/04/26 09:09:58;;;;;;;7.30;1.55;;;8.60;99.90;;;;;;5135847;27;20031;-59
2023/04/26 09:12:25;;;;;;;5.63;1.50;;;8.70;99.90;;;;;;5132142;27;20480;-58
2023/04/26 09:14:51;;;;;;;5.28;1.50;;;8.80;99.90;;;;;;5151045;27;20042;-53
2023/04/26 09:17:31;;;;;;;6.53;1.77;;;9.00;99.90;;;;;;5172226;27;20074;-55
2023/04/26 09:19:58;;;;;;;6.50;1.52;;;9.00;99.90;;;;;;5170546;27;20090;-51
2023/04/26 09:22:29;;;;;;;5.15;1.50;;;8.90;99.90;;;;;;5160947;27;20042;-55
2023/04/26 09:24:54;;;;;;;6.30;1.65;;;8.80;99.90;;;;;;5166712;27;20488;-57
2023/04/26 09:27:20;;;;;;;4.85;1.58;;;8.80;99.90;;;;;;5163223;27;20042;-56
2023/04/26 09:29:58;;;;;;;6.05;1.77;;;8.80;99.90;;;;;;5138953;27;20061;-57
2023/04/26 09:32:25;;;;;;;6.53;2.13;;;8.80;99.90;;;;;;5138501;27;20038;-56
2023/04/26 09:34:51;;;;;;;7.68;1.95;;;8.80;99.90;;;;;;5169324;27;20046;-55
2023/04/26 09:37:16;;;;;;;7.65;1.80;;;8.80;99.90;;;;;;5171971;27;20083;-57
2023/04/26 09:39:42;;;;;;;7.30;1.70;;;8.90;99.90;;;;;;5170866;27;20366;-54
2023/04/26 09:42:11;;;;;;;6.63;1.50;;;8.90;99.90;;;;;;5170712;27;20080;-54
2023/04/26 09:44:37;;;;;;;6.00;1.60;;;8.90;99.90;;;;;;5138958;27;20048;-57
2023/04/26 09:47:04;;;;;;;4.47;1.50;;;8.90;99.90;;;;;;5169409;27;20145;-55
2023/04/26 09:49:44;;;;;;;5.80;1.83;;;8.90;99.90;;;;;;5171725;27;20081;-57
2023/04/26 09:52:10;;;;;;;6.88;1.90;;;8.80;99.90;;;;;;5171295;27;20030;-56
2023/04/26 09:54:45;;;;;;;5.20;1.50;;;8.90;99.90;;;;;;5170579;27;20042;-52
2023/04/26 09:57:16;;;;;;;7.53;1.77;;;8.80;99.90;;;;;;5173076;27;20098;-57
2023/04/26 09:59:46;;;;;;;4.28;1.70;;;8.90;99.90;;;;;;5173041;27;20372;-57
2023/04/26 10:02:16;;;;;;;10.02;2.60;;;9.20;99.90;;;;;;5171341;27;20073;-53
2023/04/26 10:04:45;;;;;;;5.95;1.90;;;9.50;99.90;;;;;;5170132;27;20452;-55
2023/04/26 10:07:12;;;;;;;6.20;1.98;;;9.80;99.90;;;;;;5171164;27;20034;-58
2023/04/26 10:09:39;;;;;;;6.78;2.13;;;10.20;99.90;;;;;;5170666;27;20042;-56
2023/04/26 10:12:05;;;;;;;5.05;1.63;;;10.30;99.90;;;;;;5166212;27;20117;-57
2023/04/26 10:14:33;;;;;;;5.72;2.03;;;10.20;99.90;;;;;;5164543;27;20043;-54
2023/04/26 10:16:59;;;;;;;6.03;2.10;;;10.10;99.90;;;;;;5171949;27;20056;-55
2023/04/26 10:19:26;;;;;;;5.30;2.00;;;10.10;99.90;;;;;;5170403;27;20449;-57
2023/04/26 10:21:55;;;;;;;7.28;2.33;;;10.10;99.90;;;;;;5170662;27;20128;-55
2023/04/26 10:24:22;;;;;;;6.85;1.92;;;10.20;99.90;;;;;;5170661;27;20102;-56
2023/04/26 10:26:56;;;;;;;6.53;2.00;;;10.20;99.90;;;;;;5175130;27;20037;-58
2023/04/26 10:29:26;;;;;;;5.93;1.60;;;10.20;99.90;;;;;;5174641;27;20046;-58
2023/04/26 10:32:01;;;;;;;3.72;1.30;;;10.00;99.90;;;;;;5173014;27;20122;-57
2023/04/26 10:34:30;;;;;;;6.57;1.50;;;9.90;99.90;;;;;;5153811;27;20066;-59
2023/04/26 10:37:17;;;;;;;4.90;1.30;;;9.80;99.90;;;;;;5174565;27;20477;-54
2023/04/26 10:39:44;;;;;;;6.13;1.33;;;9.80;99.90;;;;;;5174751;27;20038;-56
2023/04/26 10:42:31;;;;;;;4.68;1.25;;;9.90;99.90;;;;;;5133901;27;20107;-56
2023/04/26 10:44:58;;;;;;;10.38;2.35;;;9.80;99.90;;;;;;5166618;27;20050;-56
2023/04/26 10:47:30;;;;;;;7.93;1.52;;;9.70;99.90;;;;;;5174219;27;20054;-55
2023/04/26 10:50:02;;;;;;;8.07;1.92;;;9.50;99.90;;;;;;5172786;27;20046;-56
2023/04/26 10:52:29;;;;;;;5.28;1.38;;;9.30;99.90;;;;;;5175301;27;20045;-52
2023/04/26 10:54:58;;;;;;;4.50;1.42;;;9.10;99.90;;;;;;5147049;27;20081;-57
2023/04/26 10:57:48;;;;;;;4.95;1.65;;;9.00;99.90;;;;;;5174268;27;20118;-55
2023/04/26 11:00:19;;;;;;;8.38;1.67;;;8.90;99.90;;;;;;5135988;27;20114;-53
2023/04/26 11:02:52;;;;;;;7.90;1.73;;;8.90;99.90;;;;;;5140169;27;20445;-56
2023/04/26 11:05:33;;;;;;;3.70;1.40;;;8.90;99.90;;;;;;5175249;27;20441;-56
2023/04/26 11:08:18;;;;;;;6.57;1.40;;;9.00;99.90;;;;;;5173169;27;20120;-55
2023/04/26 11:10:55;;;;;;;4.93;1.35;;;9.00;99.90;;;;;;5171655;27;20366;-59
2023/04/26 11:13:21;;;;;;;6.53;1.40;;;9.00;99.90;;;;;;5173498;27;20034;-57
2023/04/26 11:15:51;;;;;;;5.30;1.20;;;9.10;99.90;;;;;;5176160;27;20091;-57
2023/04/26 11:18:18;;;;;;;4.90;1.42;;;9.20;99.90;;;;;;5157147;27;20050;-59
2023/04/26 11:20:45;;;;;;;5.57;1.65;;;9.70;99.90;;;;;;5173229;27;20073;-56
2023/04/26 11:23:12;;;;;;;3.08;1.30;;;10.10;99.90;;;;;;5175043;27;20035;-56
2023/04/26 11:25:39;;;;;;;4.68;1.50;;;10.50;99.90;;;;;;5173512;27;20026;-58
2023/04/26 11:28:05;;;;;;;3.00;1.08;;;11.00;99.90;;;;;;5144166;27;20071;-58
2023/04/26 11:30:33;;;;;;;3.90;1.30;;;11.20;99.90;;;;;;5173918;27;20038;-55
2023/04/26 11:33:00;;;;;;;3.53;1.05;;;11.20;99.90;;;;;;5174540;27;20042;-57
2023/04/26 11:35:28;;;;;;;4.88;1.27;;;11.10;99.90;;;;;;5171632;27;20038;-55
2023/04/26 11:37:57;;;;;;;5.60;1.58;;;10.90;99.90;;;;;;5142978;27;20038;-55
2023/04/26 11:40:27;;;;;;;4.07;1.20;;;10.70;99.90;;;;;;5133535;27;20035;-58
2023/04/26 11:42:53;;;;;;;5.90;1.65;;;10.50;99.90;;;;;;5133586;27;20028;-58
2023/04/26 11:45:19;;;;;;;4.95;1.30;;;10.40;99.90;;;;;;5155026;27;20030;-54
2023/04/26 11:47:46;;;;;;;6.45;1.70;;;10.40;99.90;;;;;;5134388;27;20054;-56
2023/04/26 11:50:13;;;;;;;6.60;2.00;;;10.20;99.90;;;;;;5145017;27;20043;-58
2023/04/26 11:52:39;;;;;;;7.05;1.58;;;10.20;99.90;;;;;;5168776;27;20046;-53
2023/04/26 11:55:06;;;;;;;4.65;1.48;;;10.10;99.90;;;;;;5174653;27;20041;-58
2023/04/26 11:57:32;;;;;;;5.47;1.50;;;10.00;99.90;;;;;;5173990;27;20038;-53
2023/04/26 12:00:13;;;;;;;3.80;1.52;;;10.00;99.90;;;;;;5172896;27;20048;-56
2023/04/26 12:02:46;;;;;;;4.53;1.30;;;10.00;99.90;;;;;;5132054;27;20046;-58
2023/04/26 12:05:31;;;;;;;4.65;1.50;;;10.00;99.90;;;;;;5137208;27;20035;-57
2023/04/26 12:07:58;;;;;;;5.90;1.50;;;9.90;99.90;;;;;;5151197;27;20477;-56
2023/04/26 12:10:34;;;;;;;4.95;1.58;;;9.90;99.90;;;;;;5172267;27;20034;-54
2023/04/26 12:13:00;;;;;;;7.47;1.60;;;9.90;99.90;;;;;;5173964;27;20078;-57
2023/04/26 12:15:30;;;;;;;6.25;1.60;;;9.90;99.90;;;;;;5171696;27;20034;-56
2023/04/26 12:18:09;;;;;;;6.75;1.75;;;9.90;99.90;;;;;;5173830;27;20030;-56
2023/04/26 12:20:37;;;;;;;7.07;1.60;;;9.90;99.90;;;;;;5172933;27;20077;-57
2023/04/26 12:23:08;;;;;;;6.45;1.55;;;10.00;99.90;;;;;;5174464;27;20150;-58
2023/04/26 12:25:38;;;;;;;7.18;1.60;;;10.00;99.90;;;;;;5154993;27;20113;-57
2023/04/26 12:28:10;;;;;;;5.22;1.90;;;10.00;99.90;;;;;;5173393;27;20042;-58
2023/04/26 12:30:37;;;;;;;8.20;2.28;;;10.00;99.90;;;;;;5159736;27;20035;-55
2023/04/26 12:33:03;;;;;;;7.07;2.25;;;9.90;99.90;;;;;;5158371;27;20034;-56
2023/04/26 12:35:30;;;;;;;5.60;1.98;;;9.80;99.90;;;;;;5172553;27;21329;-56
2023/04/26 12:37:56;;;;;;;7.10;2.63;;;9.90;99.90;;;;;;5172202;27;20030;-58
2023/04/26 12:40:25;;;;;;;5.60;1.58;;;9.80;99.90;;;;;;5171579;27;20057;-56
2023/04/26 12:42:51;;;;;;;5.50;1.67;;;9.80;99.90;;;;;;5172829;27;20049;-56
2023/04/26 12:45:19;;;;;;;6.75;2.00;;;9.70;99.90;;;;;;5171535;27;20042;-56
2023/04/26 12:47:45;;;;;;;8.75;2.40;;;9.70;99.90;;;;;;5136193;27;20066;-53
2023/04/26 12:50:11;;;;;;;7.18;2.30;;;9.60;99.90;;;;;;5171803;27;20026;-55
2023/04/26 12:52:38;;;;;;;6.30;2.17;;;9.60;99.90;;;;;;5171572;27;20036;-56
2023/04/26 12:55:10;;;;;;;7.63;2.63;;;9.50;99.90;;;;;;5134667;27;20428;-58